Startpagina
METAR-TAF:

METAR-TAF

Vliegvelden :

Damascus, Syrië

Luchthaven Damascus

breedte: 33-25N, lengte: 036-31E, hoogte: 608 m

Actueel weer

Dit bericht is 1 uur en het 3 minuten geleden gemaakt, om 23:00 UTC
Wind 7 kt uit het zuidzuidwesten
Temperatuur 23°C
Vochtigheid 41%
Druk 1010 hPa
Zicht 10 km of meer
geen wolken onder 1500 m en geen cumulonimbus

METAR: OSDI 272300Z 21007KT CAVOK 23/09 Q1010

Tijdstip: 03:03 (00:03 UTC)

Verwachting

Verwachting geldig van 28 om 00 UTC tot 29 om 06 UTC
Wind 3 kt uit variabele richting
Zicht 10 km of meer
geen wolken onder 1500 m en geen cumulonimbus
Tijdelijke
van 28 om 12 UTC tot 28 om 18 UTC
Wind 15 kt uit het westzuidwesten
Zicht: 8000 m
Weinig wolken op 3000 ft

TAF: OSDI 2800/2906 VRB03KT CAVOK TEMPO 2812/2818 24015KT 8000 FEW030

Waarnemingen en weersverwachtingen van meer dan 4000 vliegvelden (METAR en TAF).

De beschikbare stations zijn de gele en rode punten op de kaart.

Ga met uw muis naar het station om de naam te zien.

Klik dan om waarnemingen en weersverwachtingen te zien.

kaart wijzigen: klik op de groene knoppen met een zwart kruis om in te zoomen, op de groene knop met een streepje om uit te zoomen of op de groene pijlen voor aangrenzende kaarten.


METAR-TAF: